Historyczne dane pomiarowe

Dodano dane terminowe – wersja testowa.

Dane z okresu 1951-2019

Wersja bazy: 1.34 [2019-03-16, lista zmian], aktualizacja planowana na 2019-04-15

Dane meteo z obszaru Polski uzyskane na podstawie danych udostępnionych przez Instytut Meteorologii i Gospodarki Wodnej – Państwowy Instytut Badawczy.

 

Wybierz Datę:    

       

TemperaturaWilgotnośćZachmurzenieWiatrCiśnienieWidzialnośćZjawiska
 Data    tng td wb rh cc ccl cl cm ch dir g1 g2 mslp ppp      
1999-07-22 00:00:00 18.2--- 17.4 17.795wxwxwx1wx--1012.6 988.5 0.0---wxw1
1999-07-22 01:00:00 17.4--- 16.6 16.995wxwxwx3wx--1012.8 988.6----wx
1999-07-22 02:00:00 17.0--- 16.0 16.494wxwxwx3wx--1012.8 988.6----wx
1999-07-22 03:00:00 17.0--- 15.2 15.989wxwxwxwxwx3wx--1012.7 988.5----wx
1999-07-22 04:00:00 16.2--- 14.6 15.290wxwxwxwxwx2wx--1013.5 989.2----wx
1999-07-22 05:00:00 17.5--- 15.6 16.389wxwxwxwx2wx--1013.7 989.5----wx
1999-07-22 06:00:00 18.7--- 15.3 16.681wxwxwxwx3wx--1014.1 990.0 0.0---wx
1999-07-22 07:00:00 20.3--- 12.5 15.661wxwxwxwxwx5wx--1014.6 990.6----wx
1999-07-22 08:00:00 20.8--- 11.9 15.557wxwxwxwxwx3wx--1014.5 990.5----wx
1999-07-22 09:00:00 21.1--- 10.9 15.152wxwxwxwx3wx--1014.0 990.1----wx
1999-07-22 10:00:00 22.6--- 11.3 15.949wxwxwxwx2wx--1013.8 990.0----wx
1999-07-22 11:00:00 22.6--- 11.6 16.050wxwxwxwx2wx--1013.3 989.5----wx
1999-07-22 12:00:00 23.3--- 10.6 15.845wxwxwxwx2wx--1012.5 988.8 0.0---wx
1999-07-22 13:00:00 24.3--- 11.1 16.443wxwxwxwxwx1wx--1011.8 988.2----wx
1999-07-22 14:00:00 23.8--- 10.4 15.943wxwxwxwx2wx--1011.0 987.4----wx
1999-07-22 15:00:00 24.0--- 11.5 16.546wxwxwxwxwx1wx--1010.9 987.3----wx
1999-07-22 16:00:00 22.8--- 11.0 15.847wxwxwxwx3wx--1011.1 987.4----wx
1999-07-22 17:00:00 22.0--- 11.6 15.852wxwxwxwx3wx--1011.2 987.4----wx
1999-07-22 18:00:00 20.6--- 10.7 14.853wxwxwxwx3wx--1011.4 987.5 0.0---wx
1999-07-22 19:00:00 19.0--- 11.9 14.863wxwxwxwx2wx--1012.1 988.1----wx
1999-07-22 20:00:00 18.0--- 12.5 14.770wxwxwxwx2wx--1013.4 989.2----wx
1999-07-22 21:00:00 17.2--- 11.7 14.070wxwxwx2wx--1013.3 989.1----wx
1999-07-22 22:00:00 16.4--- 12.3 14.077wxwxwx3wx--1013.8 989.5----wx
1999-07-22 23:00:00 16.0--- 11.1 13.273wxwxwxwx1wx--1013.7 989.4----wx

 

Źródłem pochodzenia danych jest Instytut Meteorologii i Gospodarki Wodnej – Państwowy Instytut Badawczy. Dane Instytutu Meteorologii i Gospodarki Wodnej – Państwowego Instytutu Badawczego zostały przetworzone.

Dane źródłowe można odnaleźć na stronie https://dane.imgw.pl